Time;durP1;ratioP1;P1;durP2;ratioP2;P2;SDS_P1;SDS_P2;PMS_P1;PMS_P2;Temp;Humidity;BMP_temperature;BMP_pressure;BME280_temperature;BME280_humidity;BME280_pressure;Samples;Min_cycle;Max_cycle;Signal;HPM_P1;HPM_P2
2022/08/09 00:00:47;;;;;;;;;;;;;;;25.08;53.53;100915.44;7404133;19;1816;-34
2022/08/09 00:03:15;;;;;;;;;;;;;;;25.06;53.69;100909.34;7401122;19;1819;-34
2022/08/09 00:05:43;;;;;;;;;;;;;;;25.07;53.45;100893.94;7403080;19;1843;-34
2022/08/09 00:08:12;;;;;;;;;;;;;;;25.00;53.71;100913.56;7404418;19;1516;-34
2022/08/09 00:10:40;;;;;;;;;;;;;;;25.07;53.71;100908.34;7402017;19;1841;-34
2022/08/09 00:13:08;;;;;;;;;;;;;;;25.21;52.84;100920.31;7402187;19;1577;-34
2022/08/09 00:15:39;;;;;;;;;;;;;;;25.12;53.28;100919.47;7404031;19;1918;-34
2022/08/09 00:18:08;;;;;;;;;;;;;;;25.11;53.69;100903.41;7403034;19;1800;-34
2022/08/09 00:20:36;;;;;;;;;;;;;;;25.25;53.28;100905.44;7403244;19;1693;-34
2022/08/09 00:23:04;;;;;;;;;;;;;;;25.35;53.25;100918.78;7403770;19;1890;-34
2022/08/09 00:25:32;;;;;;;;;;;;;;;25.32;53.24;100914.56;7402812;19;1754;-34
2022/08/09 00:28:01;;;;;;;;;;;;;;;25.33;53.26;100907.28;7402695;19;1784;-34
2022/08/09 00:30:29;;;;;;;;;;;;;;;25.34;52.99;100909.81;7403496;19;1091;-34
2022/08/09 00:33:00;;;;;;;;;;;;;;;25.38;53.08;100921.13;7403063;19;1864;-34
2022/08/09 00:35:28;;;;;;;;;;;;;;;25.32;53.11;100913.72;7401690;19;1700;-34
2022/08/09 00:37:56;;;;;;;;;;;;;;;25.29;53.17;100912.22;7401037;19;1841;-34
2022/08/09 00:40:25;;;;;;;;;;;;;;;25.32;52.94;100916.41;7402419;19;1761;-34
2022/08/09 00:42:53;;;;;;;;;;;;;;;25.30;53.10;100913.88;7402888;19;1502;-34
2022/08/09 00:45:21;;;;;;;;;;;;;;;25.35;53.33;100926.91;7403925;19;1847;-34
2022/08/09 00:47:50;;;;;;;;;;;;;;;25.32;53.29;100911.00;7400962;19;1903;-34
2022/08/09 00:50:20;;;;;;;;;;;;;;;25.36;53.28;100924.00;7403420;19;1916;-34
2022/08/09 00:52:49;;;;;;;;;;;;;;;25.35;53.12;100926.91;7403039;19;1907;-34
2022/08/09 00:55:17;;;;;;;;;;;;;;;25.34;53.16;100925.22;7401899;19;2310;-34
2022/08/09 00:57:45;;;;;;;;;;;;;;;25.32;53.27;100927.25;7400987;19;1873;-34
2022/08/09 01:00:15;;;;;;;;;;;;;;;25.32;53.27;100925.38;7403537;19;1037;-34
2022/08/09 01:02:47;;;;;;;;;;;;;;;25.30;53.17;100918.47;7400317;19;2040;-34
2022/08/09 01:05:19;;;;;;;;;;;;;;;25.29;53.03;100916.78;7402063;19;2071;-34
2022/08/09 01:07:55;;;;;;;;;;;;;;;25.29;53.07;100920.31;7401509;19;1506;-34
2022/08/09 01:10:27;;;;;;;;;;;;;;;25.23;53.23;100914.75;7399374;19;2046;-34
2022/08/09 01:12:58;;;;;;;;;;;;;;;25.26;53.34;100927.94;7400969;19;1582;-34
2022/08/09 01:15:30;;;;;;;;;;;;;;;25.30;53.03;100915.75;7402889;19;1834;-34
2022/08/09 01:18:01;;;;;;;;;;;;;;;25.24;53.26;100936.22;7401286;19;1849;-34
2022/08/09 01:20:36;;;;;;;;;;;;;;;25.27;53.46;100935.91;7403092;19;1762;-34
2022/08/09 01:23:26;;;;;;;;;;;;;;;25.12;53.51;100905.13;7401632;19;1737;-34
2022/08/09 01:25:58;;;;;;;;;;;;;;;25.28;53.31;100931.31;7401723;19;1755;-35
2022/08/09 01:28:30;;;;;;;;;;;;;;;25.28;53.42;100951.09;7400994;19;1929;-34
2022/08/09 01:30:59;;;;;;;;;;;;;;;25.21;53.69;100931.16;7400842;19;1899;-34
2022/08/09 01:33:30;;;;;;;;;;;;;;;25.23;53.39;100925.56;7400967;19;1976;-34
2022/08/09 01:36:01;;;;;;;;;;;;;;;25.21;53.60;100939.25;7401411;19;2056;-35
2022/08/09 01:38:31;;;;;;;;;;;;;;;25.20;53.18;100924.03;7402125;19;1841;-34
2022/08/09 01:41:03;;;;;;;;;;;;;;;25.24;53.33;100935.41;7400805;19;1917;-34
2022/08/09 01:43:34;;;;;;;;;;;;;;;25.22;53.41;100932.84;7400771;19;1835;-34
2022/08/09 01:46:03;;;;;;;;;;;;;;;25.15;53.55;100926.44;7401658;19;1871;-34
2022/08/09 01:48:31;;;;;;;;;;;;;;;25.15;53.51;100937.25;7401461;19;1760;-34
2022/08/09 01:51:01;;;;;;;;;;;;;;;25.13;53.69;100923.06;7399200;19;1778;-35
2022/08/09 01:53:30;;;;;;;;;;;;;;;25.09;53.56;100927.09;7399811;19;1672;-34
2022/08/09 01:55:59;;;;;;;;;;;;;;;25.13;53.72;100923.88;7400535;19;1632;-34
2022/08/09 01:58:28;;;;;;;;;;;;;;;25.13;53.74;100929.31;7399913;19;1502;-34
2022/08/09 02:01:00;;;;;;;;;;;;;;;25.12;53.69;100940.28;7394140;19;3506;-57
2022/08/09 02:03:30;;;;;;;;;;;;;;;25.07;53.44;100918.31;7401490;19;1778;-68
2022/08/09 02:06:00;;;;;;;;;;;;;;;25.01;53.54;100926.09;7403668;19;1237;-57
2022/08/09 02:08:31;;;;;;;;;;;;;;;25.07;53.64;100935.41;7402209;19;1331;-55
2022/08/09 02:11:00;;;;;;;;;;;;;;;25.13;53.62;100920.34;7402785;19;1406;-67
2022/08/09 02:13:29;;;;;;;;;;;;;;;25.17;53.60;100937.94;7403397;19;1744;-68
2022/08/09 02:16:01;;;;;;;;;;;;;;;24.94;53.64;100926.97;7403599;19;1368;-55
2022/08/09 02:18:32;;;;;;;;;;;;;;;24.93;54.04;100936.06;7401370;19;1868;-66
2022/08/09 02:21:04;;;;;;;;;;;;;;;25.00;53.94;100920.84;7404256;19;1411;-63
2022/08/09 02:23:43;;;;;;;;;;;;;;;25.01;53.73;100931.53;7403981;19;1230;-64
2022/08/09 02:26:12;;;;;;;;;;;;;;;25.05;53.77;100925.75;7403598;19;1751;-66
2022/08/09 02:28:43;;;;;;;;;;;;;;;25.05;53.77;100918.50;7401808;19;1775;-66
2022/08/09 02:31:19;;;;;;;;;;;;;;;25.08;53.88;100923.53;7401331;19;1294;-65
2022/08/09 02:33:48;;;;;;;;;;;;;;;25.07;53.83;100919.16;7403003;19;1426;-55
2022/08/09 02:36:20;;;;;;;;;;;;;;;25.02;53.70;100916.13;7401413;19;1859;-66
2022/08/09 02:38:51;;;;;;;;;;;;;;;25.09;53.62;100914.44;7403352;19;1509;-57
2022/08/09 02:41:21;;;;;;;;;;;;;;;25.06;53.79;100922.03;7401732;19;1412;-55
2022/08/09 02:43:50;;;;;;;;;;;;;;;25.00;53.83;100924.41;7402657;19;1327;-66
2022/08/09 02:46:23;;;;;;;;;;;;;;;24.96;53.98;100914.94;7401773;19;1597;-66
2022/08/09 02:48:52;;;;;;;;;;;;;;;25.02;53.85;100911.53;7404198;19;1880;-57
2022/08/09 02:51:22;;;;;;;;;;;;;;;24.94;54.18;100911.56;7404387;19;1542;-66
2022/08/09 02:53:53;;;;;;;;;;;;;;;24.83;54.46;100921.88;7403265;19;1759;-66
2022/08/09 02:56:22;;;;;;;;;;;;;;;24.94;54.10;100916.97;7403904;19;1875;-55
2022/08/09 02:58:52;;;;;;;;;;;;;;;24.92;54.14;100921.72;7402670;19;1750;-64
2022/08/09 03:01:23;;;;;;;;;;;;;;;24.88;54.05;100931.19;7401726;19;1657;-55
2022/08/09 03:03:52;;;;;;;;;;;;;;;24.89;54.24;100930.19;7403464;19;1593;-56
2022/08/09 03:06:23;;;;;;;;;;;;;;;24.90;53.75;100934.56;7401700;19;1345;-66
2022/08/09 03:08:53;;;;;;;;;;;;;;;24.93;53.76;100928.81;7402699;19;1624;-55
2022/08/09 03:11:23;;;;;;;;;;;;;;;25.00;53.91;100928.97;7401738;19;1495;-56
2022/08/09 03:13:52;;;;;;;;;;;;;;;24.91;53.95;100925.44;7406904;19;1568;-55
2022/08/09 03:16:25;;;;;;;;;;;;;;;24.85;54.06;100939.66;7407335;19;1378;-56
2022/08/09 03:18:54;;;;;;;;;;;;;;;24.84;54.27;100935.25;7405378;19;1303;-55
2022/08/09 03:21:23;;;;;;;;;;;;;;;24.90;53.81;100922.91;7407466;19;1395;-55
2022/08/09 03:23:52;;;;;;;;;;;;;;;24.91;53.60;100920.03;7408198;19;1364;-63
2022/08/09 03:26:21;;;;;;;;;;;;;;;24.89;53.66;100922.06;7406918;19;1767;-61
2022/08/09 03:28:54;;;;;;;;;;;;;;;24.86;54.13;100919.69;7407570;19;1769;-56
2022/08/09 03:31:25;;;;;;;;;;;;;;;24.92;53.94;100921.72;7406853;19;1355;-65
2022/08/09 03:33:54;;;;;;;;;;;;;;;24.97;53.91;100942.88;7402447;19;1902;-62
2022/08/09 03:36:23;;;;;;;;;;;;;;;24.96;53.98;100955.53;7402721;19;1346;-57
2022/08/09 03:38:51;;;;;;;;;;;;;;;25.00;53.77;100928.97;7404298;19;1865;-62
2022/08/09 03:41:19;;;;;;;;;;;;;;;24.99;54.09;100941.66;7407379;19;1351;-55
2022/08/09 03:43:48;;;;;;;;;;;;;;;24.86;53.83;100938.63;7402320;19;1339;-56
2022/08/09 03:46:17;;;;;;;;;;;;;;;24.87;54.10;100929.50;7406291;19;1457;-55
2022/08/09 03:48:49;;;;;;;;;;;;;;;24.87;54.14;100923.22;7405667;19;1418;-63
2022/08/09 03:51:17;;;;;;;;;;;;;;;24.81;54.21;100919.38;7407231;19;1883;-62
2022/08/09 03:53:46;;;;;;;;;;;;;;;24.89;53.89;100922.06;7406707;19;1387;-55
2022/08/09 03:56:14;;;;;;;;;;;;;;;24.86;53.81;100917.00;7406789;19;1419;-56
2022/08/09 03:58:43;;;;;;;;;;;;;;;24.89;53.87;100932.88;7404379;19;1869;-55
2022/08/09 04:01:11;;;;;;;;;;;;;;;24.93;53.67;100919.84;7405550;19;1517;-55
2022/08/09 04:03:41;;;;;;;;;;;;;;;24.95;53.65;100909.72;7405967;19;1771;-57
2022/08/09 04:06:12;;;;;;;;;;;;;;;24.95;53.72;100921.38;7406102;19;1399;-62
2022/08/09 04:08:40;;;;;;;;;;;;;;;24.94;53.52;100921.53;7410119;19;1398;-56
2022/08/09 04:11:09;;;;;;;;;;;;;;;25.02;53.75;100932.34;7407506;19;1538;-61
2022/08/09 04:13:37;;;;;;;;;;;;;;;25.03;53.73;100920.53;7408824;19;1466;-62
2022/08/09 04:16:06;;;;;;;;;;;;;;;24.99;53.82;100928.13;7407190;19;1498;-62
2022/08/09 04:18:34;;;;;;;;;;;;;;;24.99;53.88;100933.56;7405871;19;1893;-55
2022/08/09 04:21:02;;;;;;;;;;;;;;;25.01;53.80;100939.63;7408183;19;1386;-61
2022/08/09 04:23:33;;;;;;;;;;;;;;;25.07;53.60;100945.34;7406869;19;1542;-62
2022/08/09 04:26:02;;;;;;;;;;;;;;;25.09;53.70;100946.91;7406640;19;1311;-62
2022/08/09 04:28:30;;;;;;;;;;;;;;;25.10;53.36;100928.78;7404573;19;1428;-55
2022/08/09 04:30:59;;;;;;;;;;;;;;;25.15;53.59;100938.09;7404446;19;1411;-56
2022/08/09 04:33:27;;;;;;;;;;;;;;;25.18;53.64;100931.47;7406002;19;1286;-60
2022/08/09 04:35:55;;;;;;;;;;;;;;;25.23;53.55;100934.56;7406002;19;1204;-58
2022/08/09 04:38:24;;;;;;;;;;;;;;;25.21;54.21;100941.97;7404968;19;1857;-59
2022/08/09 04:40:56;;;;;;;;;;;;;;;25.23;53.88;100975.16;7406183;19;1216;-59
2022/08/09 04:43:25;;;;;;;;;;;;;;;25.25;54.07;100965.00;7406156;19;1240;-59
2022/08/09 04:45:53;;;;;;;;;;;;;;;25.29;53.98;100963.63;7404909;19;1343;-58
2022/08/09 04:48:21;;;;;;;;;;;;;;;25.36;54.31;100963.78;7405070;19;1212;-58
2022/08/09 04:50:50;;;;;;;;;;;;;;;25.32;54.34;100949.75;7401562;19;1129;-58
2022/08/09 04:53:18;;;;;;;;;;;;;;;25.35;54.30;100935.88;7399088;19;1559;-58
2022/08/09 04:55:46;;;;;;;;;;;;;;;25.38;54.18;100938.22;7403451;19;1288;-59
2022/08/09 04:58:17;;;;;;;;;;;;;;;25.27;54.47;100946.72;7403278;19;1887;-59
2022/08/09 05:00:45;;;;;;;;;;;;;;;25.30;54.72;100942.81;7404043;19;1458;-58
2022/08/09 05:03:14;;;;;;;;;;;;;;;25.25;54.95;100948.75;7405518;19;1473;-58
2022/08/09 05:05:42;;;;;;;;;;;;;;;25.37;54.94;100947.38;7407207;19;1593;-58
2022/08/09 05:08:10;;;;;;;;;;;;;;;25.47;54.94;100940.94;7404439;19;1288;-57
2022/08/09 05:10:39;;;;;;;;;;;;;;;25.50;54.97;100946.81;7403718;19;1270;-60
2022/08/09 05:13:07;;;;;;;;;;;;;;;25.50;55.23;100951.38;7406170;19;1639;-55
2022/08/09 05:15:38;;;;;;;;;;;;;;;25.57;55.08;100939.69;7407469;19;1625;-61
2022/08/09 05:18:06;;;;;;;;;;;;;;;25.57;55.48;100936.16;7402540;19;2188;-59
2022/08/09 05:20:35;;;;;;;;;;;;;;;25.55;55.18;100936.31;7405343;19;1200;-55
2022/08/09 05:23:04;;;;;;;;;;;;;;;25.47;55.47;100935.50;7404687;19;1758;-58
2022/08/09 05:25:32;;;;;;;;;;;;;;;25.47;55.77;100936.34;7407234;19;1304;-52
2022/08/09 05:28:00;;;;;;;;;;;;;;;25.56;55.53;100954.22;7405956;19;1443;-51
2022/08/09 05:30:29;;;;;;;;;;;;;;;25.52;55.48;100952.06;7405829;19;1705;-50
2022/08/09 05:33:00;;;;;;;;;;;;;;;25.57;55.51;100955.09;7404627;19;1323;-60
2022/08/09 05:35:28;;;;;;;;;;;;;;;25.52;55.95;100943.94;7401368;19;1363;-49
2022/08/09 05:37:57;;;;;;;;;;;;;;;25.57;55.90;100942.41;7404749;19;1853;-49
2022/08/09 05:40:27;;;;;;;;;;;;;;;25.56;56.54;100951.53;7405642;19;1328;-52
2022/08/09 05:42:56;;;;;;;;;;;;;;;25.68;55.85;100948.44;7409003;19;1037;-62
2022/08/09 05:45:28;;;;;;;;;;;;;;;25.72;55.54;100949.78;7408183;19;1336;-60
2022/08/09 05:47:56;;;;;;;;;;;;;;;25.76;55.85;100965.50;7407968;19;1347;-61
2022/08/09 05:50:27;;;;;;;;;;;;;;;25.84;55.35;100964.63;7405343;19;1490;-54
2022/08/09 05:52:55;;;;;;;;;;;;;;;25.87;55.38;100958.03;7405347;19;1456;-55
2022/08/09 05:55:25;;;;;;;;;;;;;;;25.88;55.46;100959.69;7405424;19;1454;-53
2022/08/09 05:57:53;;;;;;;;;;;;;;;25.84;55.82;100958.38;7405270;19;1859;-54
2022/08/09 06:00:21;;;;;;;;;;;;;;;25.86;55.59;100961.75;7403741;19;1757;-51
2022/08/09 06:02:50;;;;;;;;;;;;;;;25.89;55.64;100961.41;7401202;19;1640;-51
2022/08/09 06:05:18;;;;;;;;;;;;;;;25.90;55.44;100957.66;7404725;19;1340;-51
2022/08/09 06:07:49;;;;;;;;;;;;;;;25.94;55.60;100967.16;7405045;19;1386;-52
2022/08/09 06:10:17;;;;;;;;;;;;;;;25.96;55.68;100974.09;7404876;19;1518;-53
2022/08/09 06:12:45;;;;;;;;;;;;;;;25.92;56.40;100966.50;7405082;19;1371;-58
2022/08/09 06:15:14;;;;;;;;;;;;;;;25.98;55.82;100999.16;7405076;19;1518;-52
2022/08/09 06:17:42;;;;;;;;;;;;;;;25.99;56.11;100962.06;7403014;19;1872;-55
2022/08/09 06:20:11;;;;;;;;;;;;;;;26.00;55.85;100963.72;7403539;19;1681;-55
2022/08/09 06:22:39;;;;;;;;;;;;;;;25.98;55.88;100971.19;7403715;19;1272;-54
2022/08/09 06:25:10;;;;;;;;;;;;;;;26.05;55.65;100993.03;7398600;19;1319;-57
2022/08/09 06:27:39;;;;;;;;;;;;;;;26.09;56.23;100981.66;7402946;19;1356;-64
2022/08/09 06:30:07;;;;;;;;;;;;;;;26.15;56.06;100958.41;7403369;19;1417;-55
2022/08/09 06:32:36;;;;;;;;;;;;;;;26.19;56.07;100974.13;7400968;19;1669;-56
2022/08/09 09:35:16;;;;;;;;;;;;;;;22.43;58.72;100789.78;7437132;19;1398;-35
2022/08/09 09:37:47;;;;;;;;;;;;;;;23.02;58.22;100876.31;7436154;19;1814;-35
2022/08/09 09:40:15;;;;;;;;;;;;;;;22.97;57.11;100885.84;7435456;19;1825;-35
2022/08/09 09:42:43;;;;;;;;;;;;;;;22.76;56.90;100889.75;7433787;19;1869;-35
2022/08/09 09:45:12;;;;;;;;;;;;;;;22.65;56.34;100898.09;7435266;19;1761;-35
2022/08/09 09:47:47;;;;;;;;;;;;;;;22.68;55.24;100887.00;7433652;19;1575;-36
2022/08/09 09:50:21;;;;;;;;;;;;;;;22.61;54.63;100886.75;7435224;19;1742;-35
2022/08/09 09:52:52;;;;;;;;;;;;;;;22.52;54.56;100885.03;7435894;19;1706;-35
2022/08/09 09:55:20;;;;;;;;;;;;;;;22.48;54.27;100883.63;7435179;19;1861;-35
2022/08/09 09:57:58;;;;;;;;;;;;;;;22.47;54.28;100883.78;7435936;19;1671;-35
2022/08/09 10:00:26;;;;;;;;;;;;;;;22.46;54.23;100866.75;7435102;19;1720;-35
2022/08/09 10:02:55;;;;;;;;;;;;;;;22.38;54.62;100875.66;7435154;19;1853;-35
2022/08/09 10:05:26;;;;;;;;;;;;;;;22.59;54.60;100860.97;7435986;19;1924;-35
2022/08/09 10:08:04;;;;;;;;;;;;;;;23.30;56.87;100859.06;7439720;19;1396;-35
2022/08/09 10:10:33;;;;;;;;;;;;;;;23.70;57.22;100866.47;7437050;19;1600;-35
2022/08/09 10:13:02;;;;;;;;;;;;;;;23.79;58.74;100857.41;7434494;19;1932;-35
2022/08/09 10:15:31;;;;;;;;;;;;;;;23.57;59.47;100845.34;7432589;19;1739;-35
2022/08/09 10:18:11;;;;;;;;;;;;;;;23.09;59.24;100848.69;7434322;19;1640;-35
2022/08/09 10:20:42;;;;;;;;;;;;;;;22.64;58.44;100859.50;7434068;19;1619;-35
2022/08/09 10:23:21;;;;;;;;;;;;;;;22.38;58.25;100855.91;7434637;19;1854;-35
2022/08/09 10:25:50;;;;;;;;;;;;;;;22.83;58.87;100852.22;7434326;19;1824;-35
2022/08/09 10:28:18;;;;;;;;;;;;;;;23.47;59.14;100833.00;7434780;19;1917;-35
2022/08/09 10:30:47;;;;;;;;;;;;;;;23.69;60.16;100848.59;7434692;19;1901;-35
2022/08/09 10:33:15;;;;;;;;;;;;;;;23.85;61.24;100841.56;7433997;19;1810;-35
2022/08/09 10:35:46;;;;;;;;;;;;;;;23.59;61.46;100847.88;7410902;19;1602;-35
2022/08/09 10:38:15;;;;;;;;;;;;;;;23.12;60.89;100835.72;7405694;19;1669;-35
2022/08/09 10:40:44;;;;;;;;;;;;;;;22.75;60.31;100836.00;7406768;19;1814;-35
2022/08/09 10:43:12;;;;;;;;;;;;;;;22.47;59.26;100836.13;7405340;19;1898;-35
2022/08/09 10:45:44;;;;;;;;;;;;;;;22.30;58.85;100818.13;7403775;19;1814;-35
2022/08/09 10:48:14;;;;;;;;;;;;;;;22.37;57.81;100824.59;7405079;19;2037;-35
2022/08/09 10:53:51;;;;;;;;;;;;;;;22.26;56.82;100824.84;7406219;19;1749;-35
2022/08/09 10:56:22;;;;;;;;;;;;;;;22.21;56.43;100820.72;7404669;19;1657;-36
2022/08/09 10:58:50;;;;;;;;;;;;;;;22.12;56.24;100816.25;7405138;19;1666;-36
2022/08/09 11:01:36;;;;;;;;;;;;;;;22.14;55.88;100816.94;7405250;19;1825;-36
2022/08/09 11:04:17;;;;;;;;;;;;;;;22.08;55.73;100809.50;7404050;19;1854;-36
2022/08/09 11:06:50;;;;;;;;;;;;;;;22.91;57.03;100814.50;7405300;19;1548;-36
2022/08/09 11:09:19;;;;;;;;;;;;;;;23.21;57.67;100815.84;7404907;19;1942;-36
2022/08/09 11:12:04;;;;;;;;;;;;;;;23.41;59.25;100797.53;7404531;19;1706;-36
2022/08/09 11:14:34;;;;;;;;;;;;;;;23.43;60.11;100790.13;7403268;19;1590;-36
2022/08/09 11:17:03;;;;;;;;;;;;;;;23.09;60.15;100789.34;7404147;19;1631;-36
2022/08/09 11:19:46;;;;;;;;;;;;;;;22.63;58.91;100782.31;7405018;19;1629;-36
2022/08/09 11:22:17;;;;;;;;;;;;;;;22.33;58.18;100799.81;7404317;19;1578;-36
2022/08/09 11:25:04;;;;;;;;;;;;;;;22.21;57.92;100799.19;7400755;19;1860;-36
2022/08/09 11:27:35;;;;;;;;;;;;;;;22.27;56.91;100786.97;7403482;19;1879;-36
2022/08/09 11:30:04;;;;;;;;;;;;;;;22.10;57.20;100783.25;7401762;19;1696;-36
2022/08/09 11:32:49;;;;;;;;;;;;;;;22.04;57.40;100782.06;7401918;19;1507;-36
2022/08/09 11:35:20;;;;;;;;;;;;;;;22.25;56.54;100767.44;7402272;19;1989;-36
2022/08/09 11:37:51;;;;;;;;;;;;;;;22.40;56.71;100781.16;7402940;19;1579;-36
2022/08/09 11:40:30;;;;;;;;;;;;;;;22.44;57.23;100756.47;7399631;19;1692;-36
2022/08/09 11:42:59;;;;;;;;;;;;;;;22.51;57.10;100770.13;7403520;19;1990;-36
2022/08/09 11:45:28;;;;;;;;;;;;;;;22.50;57.76;100771.16;7401419;19;1845;-36
2022/08/09 11:47:57;;;;;;;;;;;;;;;23.03;56.39;100753.06;7402382;19;1634;-36
2022/08/09 11:50:26;;;;;;;;;;;;;;;23.91;54.62;100754.47;7405557;19;1709;-36
2022/08/09 11:53:09;;;;;;;;;;;;;;;24.41;53.70;100750.72;7404571;19;1042;-36
2022/08/09 11:55:41;;;;;;;;;;;;;;;24.65;53.54;100740.91;7404129;19;1530;-36
2022/08/09 11:58:27;;;;;;;;;;;;;;;24.78;53.52;100725.81;7401287;19;1569;-36
2022/08/09 12:00:58;;;;;;;;;;;;;;;24.86;53.26;100716.81;7403084;19;1686;-36
2022/08/09 12:03:27;;;;;;;;;;;;;;;24.93;53.29;100736.75;7402946;19;1838;-36
2022/08/09 12:05:57;;;;;;;;;;;;;;;25.00;53.31;100728.78;7402132;19;1935;-36
2022/08/09 12:08:26;;;;;;;;;;;;;;;25.05;53.64;100736.34;7402664;19;1535;-36
2022/08/09 12:10:58;;;;;;;;;;;;;;;25.10;53.60;100705.03;7401976;19;1960;-36
2022/08/09 12:13:31;;;;;;;;;;;;;;;25.16;54.25;100706.19;7402753;19;1792;-36
2022/08/09 12:16:00;;;;;;;;;;;;;;;25.31;54.36;100719.84;7400974;19;1587;-36
2022/08/09 12:18:29;;;;;;;;;;;;;;;25.25;54.69;100705.16;7400524;19;1748;-37
2022/08/09 12:20:57;;;;;;;;;;;;;;;25.33;54.91;100721.34;7401367;19;1668;-36
2022/08/09 12:23:25;;;;;;;;;;;;;;;25.29;55.47;100706.50;7401983;19;1849;-36
2022/08/09 12:25:55;;;;;;;;;;;;;;;25.30;55.18;100713.59;7402342;19;1899;-36
2022/08/09 12:28:27;;;;;;;;;;;;;;;25.34;55.31;100698.66;7401983;19;1799;-36
2022/08/09 12:30:56;;;;;;;;;;;;;;;25.39;55.02;100701.69;7400822;19;1931;-36
2022/08/09 12:33:25;;;;;;;;;;;;;;;25.36;55.39;100691.22;7399537;19;1782;-36
2022/08/09 12:36:04;;;;;;;;;;;;;;;25.40;55.17;100691.69;7401535;19;1867;-36
2022/08/09 12:38:33;;;;;;;;;;;;;;;25.45;55.09;100688.47;7400251;19;1546;-36
2022/08/09 12:41:01;;;;;;;;;;;;;;;25.46;55.18;100690.13;7401461;19;1765;-36
2022/08/09 12:43:32;;;;;;;;;;;;;;;25.45;56.31;100693.88;7401412;19;1939;-37
2022/08/09 12:46:01;;;;;;;;;;;;;;;25.50;55.75;100686.03;7400831;19;1934;-36
2022/08/09 12:48:31;;;;;;;;;;;;;;;25.54;55.50;100692.78;7401770;19;1688;-36
2022/08/09 12:51:00;;;;;;;;;;;;;;;25.52;56.82;100678.59;7400665;19;1611;-36
2022/08/09 12:53:29;;;;;;;;;;;;;;;25.51;56.64;100676.91;7401109;19;1942;-36
2022/08/09 12:56:08;;;;;;;;;;;;;;;25.58;56.65;100677.84;7399267;19;1808;-37
2022/08/09 12:58:39;;;;;;;;;;;;;;;25.58;56.65;100678.69;7399175;19;1708;-36
2022/08/09 13:01:20;;;;;;;;;;;;;;;25.65;56.34;100686.94;7399546;19;1799;-37
2022/08/09 13:03:56;;;;;;;;;;;;;;;25.57;57.17;100676.19;7399569;19;1937;-36
2022/08/09 13:06:28;;;;;;;;;;;;;;;25.63;56.60;100663.78;7400687;19;1962;-36
2022/08/09 13:09:01;;;;;;;;;;;;;;;25.66;57.15;100661.53;7400324;19;1673;-36
2022/08/09 13:11:32;;;;;;;;;;;;;;;25.67;57.44;100660.53;7405105;19;1629;-36
2022/08/09 13:14:03;;;;;;;;;;;;;;;25.67;57.62;100649.69;7397935;19;1775;-37
2022/08/09 13:16:45;;;;;;;;;;;;;;;25.63;57.58;100653.78;7401206;19;1741;-36
2022/08/09 13:19:14;;;;;;;;;;;;;;;25.66;57.44;100653.41;7399824;19;1666;-36
2022/08/09 13:21:42;;;;;;;;;;;;;;;25.66;57.55;100647.16;7400119;19;1556;-36
2022/08/09 13:24:12;;;;;;;;;;;;;;;25.66;57.52;100639.88;7396590;19;1882;-36
2022/08/09 13:26:41;;;;;;;;;;;;;;;25.73;57.59;100640.00;7397613;19;1648;-36
2022/08/09 13:29:13;;;;;;;;;;;;;;;25.71;57.60;100642.88;7401313;19;1764;-36
2022/08/09 13:31:57;;;;;;;;;;;;;;;25.80;57.53;100658.06;7400283;19;1766;-37
2022/08/09 13:34:26;;;;;;;;;;;;;;;25.91;56.88;100658.66;7397789;19;1522;-36
2022/08/09 13:36:54;;;;;;;;;;;;;;;25.93;56.61;100651.19;7398113;19;1390;-36
2022/08/09 13:39:22;;;;;;;;;;;;;;;25.90;56.42;100648.81;7397185;19;1736;-36
2022/08/09 13:41:51;;;;;;;;;;;;;;;25.90;56.47;100659.63;7398130;19;1799;-36
2022/08/09 13:44:22;;;;;;;;;;;;;;;25.94;56.31;100666.41;7398244;19;2114;-36
2022/08/09 13:46:50;;;;;;;;;;;;;;;25.92;55.84;100641.38;7399083;19;1749;-36
2022/08/09 13:49:18;;;;;;;;;;;;;;;25.94;55.65;100634.75;7399681;19;1682;-36
2022/08/09 13:51:46;;;;;;;;;;;;;;;25.98;55.50;100636.06;7399394;19;1695;-36
2022/08/09 13:54:15;;;;;;;;;;;;;;;25.87;55.01;100655.44;7398288;19;1740;-36
2022/08/09 13:56:43;;;;;;;;;;;;;;;25.86;55.26;100640.19;7398894;19;1899;-36
2022/08/09 13:59:11;;;;;;;;;;;;;;;25.92;54.77;100641.38;7399920;19;2163;-36
2022/08/09 14:01:42;;;;;;;;;;;;;;;25.93;54.91;100648.47;7398579;19;1593;-36
2022/08/09 14:04:10;;;;;;;;;;;;;;;25.88;54.93;100651.69;7396619;19;2060;-36
2022/08/09 14:06:39;;;;;;;;;;;;;;;25.85;55.11;100633.09;7400497;19;1845;-36
2022/08/09 14:09:08;;;;;;;;;;;;;;;25.92;54.58;100620.53;7396688;19;1781;-36
2022/08/09 14:11:36;;;;;;;;;;;;;;;25.93;54.25;100634.94;7405763;19;1660;-36
2022/08/09 14:14:04;;;;;;;;;;;;;;;25.88;54.04;100640.84;7406889;19;1605;-36
2022/08/09 14:16:33;;;;;;;;;;;;;;;25.85;54.20;100645.81;7405077;19;1938;-36
2022/08/09 14:19:03;;;;;;;;;;;;;;;25.96;53.95;100637.25;7405330;19;1545;-36
2022/08/09 14:21:32;;;;;;;;;;;;;;;25.99;54.12;100623.34;7406430;19;1950;-36
2022/08/09 14:24:00;;;;;;;;;;;;;;;26.03;54.34;100646.34;7405489;19;1865;-36
2022/08/09 14:26:29;;;;;;;;;;;;;;;26.00;53.89;100633.16;7405959;19;1911;-36
2022/08/09 14:28:57;;;;;;;;;;;;;;;25.99;53.55;100632.31;7403306;19;1823;-37
2022/08/09 14:31:26;;;;;;;;;;;;;;;25.97;53.57;100628.94;7404328;19;1624;-36
2022/08/09 14:33:54;;;;;;;;;;;;;;;25.95;53.07;100625.59;7403600;19;1743;-36
2022/08/09 14:36:25;;;;;;;;;;;;;;;25.96;53.24;100637.25;7405397;19;1382;-36
2022/08/09 14:38:53;;;;;;;;;;;;;;;26.06;53.11;100637.81;7404513;19;1827;-37
2022/08/09 14:41:21;;;;;;;;;;;;;;;26.04;53.90;100645.28;7404335;19;1585;-36
2022/08/09 14:43:50;;;;;;;;;;;;;;;25.96;53.21;100654.38;7404952;19;1682;-36
2022/08/09 14:46:18;;;;;;;;;;;;;;;26.05;53.25;100660.53;7402257;19;1887;-36
2022/08/09 14:48:46;;;;;;;;;;;;;;;26.10;52.18;100650.00;7404516;19;1623;-37
2022/08/09 14:51:14;;;;;;;;;;;;;;;26.13;52.39;100679.44;7406479;19;1866;-36
2022/08/09 14:53:45;;;;;;;;;;;;;;;26.11;52.47;100658.97;7404559;19;1596;-36
2022/08/09 14:56:14;;;;;;;;;;;;;;;26.12;52.63;100655.22;7405043;19;1638;-36
2022/08/09 14:58:42;;;;;;;;;;;;;;;26.13;52.12;100660.47;7404696;19;1890;-36
2022/08/09 15:01:10;;;;;;;;;;;;;;;26.03;52.45;100665.31;7404258;19;1847;-36
2022/08/09 15:03:38;;;;;;;;;;;;;;;26.03;52.43;100670.72;7405810;19;1654;-36
2022/08/09 15:06:07;;;;;;;;;;;;;;;26.02;52.52;100666.31;7401483;19;1858;-36
2022/08/09 15:08:35;;;;;;;;;;;;;;;26.07;52.76;100672.03;7405241;19;1644;-36
2022/08/09 15:11:06;;;;;;;;;;;;;;;26.02;53.10;100673.63;7403109;19;1981;-36
2022/08/09 15:13:35;;;;;;;;;;;;;;;26.04;52.58;100661.56;7405388;19;1846;-36
2022/08/09 15:16:03;;;;;;;;;;;;;;;26.06;52.23;100675.75;7405323;19;1930;-36
2022/08/09 15:18:31;;;;;;;;;;;;;;;26.06;51.50;100686.59;7404631;19;1833;-36
2022/08/09 15:21:00;;;;;;;;;;;;;;;26.14;50.68;100683.84;7404224;19;2159;-36
2022/08/09 15:23:28;;;;;;;;;;;;;;;26.10;50.73;100696.06;7402045;19;1828;-36
2022/08/09 15:25:57;;;;;;;;;;;;;;;26.20;51.16;100703.91;7400148;19;2035;-36
2022/08/09 15:28:29;;;;;;;;;;;;;;;26.12;50.83;100672.34;7403704;19;1729;-37
2022/08/09 15:30:57;;;;;;;;;;;;;;;26.09;49.92;100675.41;7403922;19;1500;-36
2022/08/09 15:33:26;;;;;;;;;;;;;;;26.11;48.16;100716.72;7403568;19;1508;-36
2022/08/09 15:35:54;;;;;;;;;;;;;;;26.12;48.15;100706.72;7403914;19;1431;-36
2022/08/09 15:38:22;;;;;;;;;;;;;;;26.15;47.92;100681.97;7403961;19;1917;-36
2022/08/09 15:40:50;;;;;;;;;;;;;;;26.15;47.66;100674.66;7401861;19;1981;-36
2022/08/09 15:43:19;;;;;;;;;;;;;;;26.12;48.06;100674.19;7404465;19;1854;-36
2022/08/09 15:45:50;;;;;;;;;;;;;;;26.09;47.72;100661.84;7401897;19;1869;-36
2022/08/09 15:48:18;;;;;;;;;;;;;;;26.05;47.87;100660.53;7403999;19;1955;-36
2022/08/09 15:50:47;;;;;;;;;;;;;;;26.04;48.38;100658.84;7402813;19;2037;-36
2022/08/09 15:53:15;;;;;;;;;;;;;;;26.03;48.00;100649.06;7403689;19;1816;-36
2022/08/09 15:55:43;;;;;;;;;;;;;;;26.05;48.38;100651.59;7403779;19;1901;-36
2022/08/09 15:58:12;;;;;;;;;;;;;;;26.07;48.39;100655.78;7404129;19;1939;-36
2022/08/09 16:00:40;;;;;;;;;;;;;;;26.02;48.48;100657.34;7403635;19;1575;-36
2022/08/09 16:03:12;;;;;;;;;;;;;;;26.03;49.20;100661.75;7400877;19;1929;-36
2022/08/09 16:05:40;;;;;;;;;;;;;;;26.03;48.76;100654.47;7401445;19;1850;-36